< Typhoon 198506 1985 Season Typhoon 198508 >
Typhoon 198507 (JEFF)
General InformationTrack Information on Google MapsDetailed Wind InformationList of All Images || Disaster Info.ResourceGoogle EarthGE AnimationAtom FeedGeoJSON
Detalied Best Track (Time Zone = UTC)
Year Month Day Hour Lat. Long. Pressure (hPa) Wind (kt) Class Image Chart
1985 7 21 12 19.0 146.5 1006 0 2 Image Chart
1985 7 21 18 21.0 146.5 1004 0 2 Image Chart
1985 7 22 00 22.7 145.8 1002 0 2 Image Chart
1985 7 22 06 23.1 145.4 1002 0 2 Image Chart
1985 7 22 12 23.3 145.4 1000 35 3 Image Chart
1985 7 22 18 23.5 145.4 994 35 3 Image Chart
1985 7 23 00 23.9 145.5 990 50 4 Image Chart
1985 7 23 06 24.7 146.2 985 55 4 Image Chart
1985 7 23 12 25.4 146.7 985 60 4 Image Chart
1985 7 23 18 26.0 147.0 985 60 4 Image Chart
1985 7 24 00 26.6 147.2 985 60 4 Image Chart
1985 7 24 06 27.5 147.3 985 55 4 Image Chart
1985 7 24 12 28.1 146.6 985 55 4 Image Chart
1985 7 24 18 28.0 145.7 985 50 4 Image Chart
1985 7 25 00 28.0 144.8 985 50 4 Image Chart
1985 7 25 06 28.1 144.5 990 45 3 Image Chart
1985 7 25 12 27.8 143.3 990 45 3 Image Chart
1985 7 25 18 27.4 141.9 992 40 3 Image Chart
1985 7 26 00 27.3 140.4 992 0 2 Image Chart
1985 7 26 06 27.3 139.2 992 0 2 Image Chart
1985 7 26 12 27.0 137.4 992 0 2 Image Chart
1985 7 26 18 26.4 135.8 992 0 2 Image Chart
1985 7 27 00 25.5 134.5 990 40 3 Image Chart
1985 7 27 06 25.0 133.0 990 45 3 Image Chart
1985 7 27 12 24.8 131.6 990 45 3 Image Chart
1985 7 27 18 24.9 130.2 990 45 3 Image Chart
1985 7 28 00 25.0 128.9 990 45 3 Image Chart
1985 7 28 06 25.0 127.5 985 45 3 Image Chart
1985 7 28 12 24.9 126.5 985 50 4 Image Chart
1985 7 28 18 24.9 125.8 980 55 4 Image Chart
1985 7 29 00 25.1 125.0 980 55 4 Image Chart
1985 7 29 06 25.5 124.3 975 65 5 Image Chart
1985 7 29 12 26.0 123.7 970 70 5 Image Chart
1985 7 29 18 26.4 122.8 970 70 5 Image Chart
1985 7 30 00 26.9 122.3 970 70 5 Image Chart
1985 7 30 06 27.4 122.0 970 65 5 Image Chart
1985 7 30 12 28.0 121.7 975 60 4 Image Chart
1985 7 30 18 28.6 121.1 985 50 4 Image Chart
1985 7 31 00 29.4 120.8 992 45 3 Image Chart
1985 7 31 06 30.0 120.6 992 40 3 Image Chart
1985 7 31 12 30.7 120.6 992 35 3 Image Chart
1985 7 31 18 31.4 120.6 996 35 3 Image Chart
1985 8 1 00 32.0 120.8 996 35 3 Image Chart
1985 8 1 06 33.0 121.0 994 35 3 Image Chart
1985 8 1 12 34.2 121.1 994 45 3 Image Chart
1985 8 1 18 35.8 121.5 992 45 3 Image Chart
1985 8 2 00 37.4 122.5 992 45 3 Image Chart
1985 8 2 06 39.0 124.0 992 35 3 Image Chart
1985 8 2 12 41.0 126.0 994 0 6 Image Chart
1985 8 2 18 43.5 128.5 996 0 6 Image Chart
1985 8 3 00 46.0 131.0 996 0 6 Image Chart
1985 8 3 06 47.0 133.0 996 0 6 Image Chart
1985 8 3 12 47.0 135.0 1000 0 6 Image Chart
Japan Meteorological Agency Best Track Data | Correction Date : 1992-10-21
< Typhoon 198506 1985 Season Typhoon 198508 >

Help